createdAt,value
2023-04-15T00:00:49.143Z,2.42
2023-04-15T00:03:37.229Z,3.05
2023-04-15T00:06:25.169Z,13.45
2023-04-15T00:09:12.931Z,2.90
2023-04-15T00:12:00.802Z,4.70
2023-04-15T00:14:48.732Z,2.40
2023-04-15T00:17:36.507Z,3.90
2023-04-15T00:20:24.260Z,11.05
2023-04-15T00:23:12.018Z,4.60
2023-04-15T00:25:59.753Z,2.85
2023-04-15T00:28:47.449Z,6.57
2023-04-15T00:31:35.123Z,2.95
2023-04-15T00:34:23.473Z,4.43
2023-04-15T00:37:11.189Z,3.25
2023-04-15T00:39:58.864Z,4.57
2023-04-15T00:42:46.455Z,6.65
2023-04-15T00:45:34.506Z,3.15
2023-04-15T00:48:22.630Z,4.38
2023-04-15T00:51:10.909Z,11.95
2023-04-15T00:53:58.562Z,9.15
2023-04-15T00:56:46.478Z,6.88
2023-04-15T00:59:40.946Z,11.05
2023-04-15T01:05:18.843Z,7.72
2023-04-15T01:08:06.897Z,3.53
2023-04-15T01:10:57.385Z,6.80
2023-04-15T01:13:45.242Z,3.50
2023-04-15T01:16:33.056Z,2.33
2023-04-15T01:19:20.838Z,3.90
2023-04-15T01:22:08.787Z,3.53
2023-04-15T01:25:10.087Z,2.60
2023-04-15T01:27:58.280Z,4.32
2023-04-15T01:30:45.978Z,20.92
2023-04-15T01:33:35.796Z,22.67
2023-04-15T01:36:23.541Z,24.40
2023-04-15T01:39:14.480Z,6.07
2023-04-15T01:42:02.586Z,8.05
2023-04-15T01:44:50.396Z,5.38
2023-04-15T01:47:38.054Z,6.40
2023-04-15T01:50:26.369Z,6.70
2023-04-15T01:53:16.726Z,5.28
2023-04-15T01:56:04.679Z,10.65
2023-04-15T01:58:53.103Z,6.30
2023-04-15T02:01:41.166Z,7.50
2023-04-15T02:04:29.135Z,6.00
2023-04-15T02:07:20.469Z,5.43
2023-04-15T02:10:09.253Z,5.00
2023-04-15T02:12:57.030Z,9.15
2023-04-15T02:18:38.479Z,9.05
2023-04-15T02:21:29.543Z,6.57
2023-04-15T02:24:17.372Z,6.65
2023-04-15T02:27:05.065Z,6.90
2023-04-15T02:29:52.746Z,3.25
2023-04-15T02:32:41.177Z,3.58
2023-04-15T02:35:28.951Z,3.05
2023-04-15T02:38:18.107Z,3.50
2023-04-15T02:41:06.054Z,8.20
2023-04-15T02:43:55.168Z,5.32
2023-04-15T02:46:42.851Z,3.50
2023-04-15T02:49:31.218Z,11.48
2023-04-15T02:52:19.023Z,6.28
2023-04-15T02:55:07.024Z,2.00
2023-04-15T02:57:56.107Z,4.03
2023-04-15T03:00:44.014Z,5.07
2023-04-15T03:03:32.111Z,5.20
2023-04-15T03:06:20.012Z,4.70
2023-04-15T03:09:08.262Z,13.25
2023-04-15T03:11:58.096Z,6.65
2023-04-15T03:14:45.930Z,7.85
2023-04-15T03:17:33.744Z,8.52
2023-04-15T03:20:21.585Z,18.13
2023-04-15T03:23:09.656Z,15.35
2023-04-15T03:25:58.396Z,9.32
2023-04-15T03:28:46.966Z,10.80
2023-04-15T03:31:37.964Z,11.10
2023-04-15T03:34:25.935Z,23.88
2023-04-15T03:37:32.365Z,17.30
2023-04-15T03:40:21.862Z,15.88
2023-04-15T03:43:09.487Z,11.38
2023-04-15T03:45:57.408Z,12.77
2023-04-15T03:48:45.117Z,15.65
2023-04-15T03:51:32.786Z,10.43
2023-04-15T03:54:20.446Z,15.40
2023-04-15T03:57:08.161Z,9.00
2023-04-15T04:00:00.470Z,10.98
2023-04-15T04:02:53.758Z,6.55
2023-04-15T04:05:41.852Z,13.75
2023-04-15T04:08:32.217Z,9.18
2023-04-15T04:11:22.844Z,24.05
2023-04-15T04:14:10.836Z,23.10
2023-04-15T04:16:59.198Z,20.83
2023-04-15T04:19:46.917Z,30.45
2023-04-15T04:22:40.215Z,31.83
2023-04-15T04:25:28.368Z,20.17
2023-04-15T04:28:16.109Z,24.60
2023-04-15T04:31:03.800Z,19.67
2023-04-15T04:33:51.544Z,34.30
2023-04-15T04:36:39.318Z,17.25
2023-04-15T04:39:29.514Z,12.43
2023-04-15T04:42:17.202Z,13.32
2023-04-15T04:45:05.156Z,11.98
2023-04-15T04:47:55.057Z,9.68
2023-04-15T04:50:47.265Z,9.65
2023-04-15T04:53:37.264Z,12.30
2023-04-15T04:56:31.046Z,7.75
2023-04-15T04:59:19.554Z,5.97
2023-04-15T05:02:07.777Z,8.52
2023-04-15T05:04:55.661Z,9.27
2023-04-15T05:07:43.489Z,13.48
2023-04-15T05:10:31.175Z,17.63
2023-04-15T05:13:19.076Z,13.90
2023-04-15T05:16:07.025Z,16.73
2023-04-15T05:18:54.835Z,18.63
2023-04-15T05:21:42.889Z,17.40
2023-04-15T05:24:30.550Z,9.73
2023-04-15T05:27:19.361Z,3.72
2023-04-15T05:30:07.888Z,3.17
2023-04-15T05:32:56.050Z,5.85
2023-04-15T05:35:43.927Z,5.78
2023-04-15T05:38:34.073Z,1.25
2023-04-15T05:41:21.914Z,5.40
2023-04-15T05:44:09.852Z,0.90
2023-04-15T05:46:57.717Z,1.38
2023-04-15T05:49:45.616Z,5.03
2023-04-15T05:52:33.465Z,2.22
2023-04-15T05:55:21.451Z,1.55
2023-04-15T05:58:12.867Z,1.95
2023-04-15T06:01:00.699Z,4.93
2023-04-15T06:03:49.240Z,2.28
2023-04-15T06:06:38.474Z,4.05
2023-04-15T06:09:26.111Z,3.75
2023-04-15T06:12:14.677Z,2.67
2023-04-15T06:15:05.355Z,4.07
2023-04-15T06:17:53.120Z,6.93
2023-04-15T06:20:42.083Z,3.90
2023-04-15T06:23:30.323Z,3.25
2023-04-15T06:26:18.004Z,6.18
2023-04-15T06:29:05.965Z,3.50
2023-04-15T06:31:55.486Z,1.33
2023-04-15T06:34:43.164Z,1.90
2023-04-15T06:37:31.643Z,2.55
2023-04-15T06:40:22.601Z,2.15
2023-04-15T06:43:13.151Z,0.60
2023-04-15T06:46:24.487Z,2.35
2023-04-15T06:49:12.566Z,4.47
2023-04-15T06:52:00.905Z,0.90
2023-04-15T06:54:48.590Z,1.83
2023-04-15T06:57:36.313Z,0.50
2023-04-15T07:00:24.260Z,1.15
2023-04-15T07:03:13.205Z,0.73
2023-04-15T07:06:02.002Z,3.35
2023-04-15T07:08:49.963Z,0.40
2023-04-15T07:11:37.608Z,2.67
2023-04-15T07:14:25.301Z,0.52
2023-04-15T07:17:13.546Z,2.65
2023-04-15T07:20:01.389Z,2.72
2023-04-15T07:22:49.102Z,4.47
2023-04-15T07:25:37.205Z,4.00
2023-04-15T07:28:25.002Z,2.53
2023-04-15T07:31:12.694Z,1.25
2023-04-15T07:34:00.386Z,1.83
2023-04-15T07:36:52.150Z,3.55
2023-04-15T07:39:39.861Z,0.10
2023-04-15T07:42:27.857Z,1.05
2023-04-15T07:45:15.796Z,0.40
2023-04-15T07:48:03.666Z,0.30
2023-04-15T07:50:51.350Z,1.10
2023-04-15T07:53:39.114Z,2.42
2023-04-15T07:56:26.915Z,1.10
2023-04-15T07:59:18.102Z,0.60
2023-04-15T08:02:05.724Z,1.75
2023-04-15T08:04:54.692Z,1.27
2023-04-15T08:07:43.417Z,4.28
2023-04-15T08:10:31.129Z,0.85
2023-04-15T08:13:19.086Z,0.93
2023-04-15T08:16:16.949Z,0.43
2023-04-15T08:19:04.984Z,0.52
2023-04-15T08:21:56.718Z,2.67
2023-04-15T08:24:46.722Z,7.57
2023-04-15T08:27:36.951Z,0.47
2023-04-15T08:30:24.871Z,1.40
2023-04-15T08:33:12.712Z,1.77
2023-04-15T08:36:07.056Z,59.05
2023-04-15T08:38:55.047Z,20.95
2023-04-15T08:41:50.825Z,2.67
2023-04-15T08:44:47.034Z,2.20
2023-04-15T08:47:40.733Z,2.05
2023-04-15T08:50:50.783Z,1.75
2023-04-15T08:53:38.635Z,2.70
2023-04-15T08:56:29.561Z,1.85
2023-04-15T08:59:21.682Z,0.68
2023-04-15T09:02:09.679Z,5.05
2023-04-15T09:05:04.944Z,1.25
2023-04-15T09:07:53.923Z,1.08
2023-04-15T09:10:44.597Z,1.73
2023-04-15T09:13:35.062Z,0.57
2023-04-15T09:16:25.295Z,1.20
2023-04-15T09:19:24.384Z,3.17
2023-04-15T09:22:14.826Z,0.63
2023-04-15T09:25:02.581Z,1.00
2023-04-15T09:27:58.254Z,0.70
2023-04-15T09:30:51.010Z,0.20
2023-04-15T09:33:56.888Z,1.45
2023-04-15T09:36:59.176Z,0.22
2023-04-15T09:39:51.372Z,1.17
2023-04-15T09:42:57.958Z,1.35
2023-04-15T09:45:53.772Z,1.65
2023-04-15T09:48:41.371Z,1.20
2023-04-15T09:51:36.803Z,3.28
2023-04-15T09:54:24.575Z,2.53
2023-04-15T09:57:12.558Z,0.20
2023-04-15T10:00:00.237Z,0.40
2023-04-15T10:02:49.324Z,3.15
2023-04-15T10:05:38.095Z,34.78
2023-04-15T10:08:28.549Z,8.52
2023-04-15T10:11:19.139Z,25.23
2023-04-15T10:14:08.850Z,2.53
2023-04-15T10:17:00.374Z,2.30
2023-04-15T10:19:49.769Z,0.60
2023-04-15T10:22:56.024Z,13.63
2023-04-15T10:25:43.970Z,1.77
2023-04-15T10:28:31.965Z,3.75
2023-04-15T10:31:20.373Z,0.50
2023-04-15T10:34:08.727Z,10.20
2023-04-15T10:36:58.671Z,2.92
2023-04-15T10:39:46.580Z,2.05
2023-04-15T10:42:35.730Z,0.35
2023-04-15T10:45:27.435Z,3.67
2023-04-15T10:51:05.361Z,2.97
2023-04-15T10:53:57.889Z,2.90
2023-04-15T10:56:46.391Z,2.88
2023-04-15T10:59:59.882Z,0.10
2023-04-15T11:03:06.768Z,5.57
2023-04-15T11:05:54.850Z,0.52
2023-04-15T11:08:57.675Z,2.05
2023-04-15T11:12:08.662Z,1.38
2023-04-15T11:14:57.804Z,0.57
2023-04-15T11:17:46.506Z,1.38
2023-04-15T11:20:34.728Z,0.25
2023-04-15T11:23:36.012Z,2.25
2023-04-15T11:26:27.291Z,0.98
2023-04-15T11:29:18.510Z,5.35
2023-04-15T11:32:09.579Z,0.38
2023-04-15T11:34:58.527Z,1.17
2023-04-15T11:37:52.251Z,0.77
2023-04-15T11:40:46.183Z,1.08
2023-04-15T11:43:35.784Z,0.50
2023-04-15T11:46:32.480Z,0.45
2023-04-15T11:49:34.259Z,0.98
2023-04-15T11:52:21.933Z,0.85
2023-04-15T11:55:12.073Z,0.65
2023-04-15T11:58:19.070Z,1.38
2023-04-15T12:01:08.062Z,1.30
2023-04-15T12:03:56.149Z,11.45
2023-04-15T12:06:44.036Z,10.68
2023-04-15T12:09:42.774Z,1.45
2023-04-15T12:12:31.212Z,5.60
2023-04-15T12:15:23.758Z,1.85
2023-04-15T12:18:20.484Z,1.85
2023-04-15T12:21:11.864Z,1.20
2023-04-15T12:24:03.873Z,5.22
2023-04-15T12:26:55.110Z,1.42
2023-04-15T12:29:44.160Z,2.83
2023-04-15T12:32:35.850Z,4.25
2023-04-15T12:35:23.625Z,1.08
2023-04-15T12:38:29.523Z,0.85
2023-04-15T12:41:24.701Z,0.88
2023-04-15T12:44:13.434Z,0.52
2023-04-15T12:47:54.574Z,1.27
2023-04-15T12:51:21.288Z,0.55
2023-04-15T12:54:48.984Z,7.03
2023-04-15T12:57:41.764Z,1.75
2023-04-15T13:00:31.823Z,2.40
2023-04-15T13:03:19.655Z,1.45
2023-04-15T13:06:09.650Z,0.75
2023-04-15T13:09:00.292Z,3.95
2023-04-15T13:11:48.032Z,3.20
2023-04-15T13:14:35.750Z,2.55
2023-04-15T13:17:23.405Z,0.65
2023-04-15T13:20:11.698Z,1.75
2023-04-15T13:22:59.463Z,3.15
2023-04-15T13:25:47.248Z,2.15
2023-04-15T13:28:35.259Z,0.35
2023-04-15T13:31:26.481Z,4.78
2023-04-15T13:34:14.340Z,3.08
2023-04-15T13:37:08.957Z,1.02
2023-04-15T13:39:57.081Z,1.10
2023-04-15T13:42:44.862Z,0.98
2023-04-15T13:45:32.683Z,1.95
2023-04-15T13:48:20.513Z,2.38
2023-04-15T13:51:16.521Z,7.72
2023-04-15T13:54:04.405Z,2.53
2023-04-15T13:56:52.229Z,2.13
2023-04-15T13:59:40.139Z,1.95
2023-04-15T14:02:27.933Z,0.90
2023-04-15T14:05:15.973Z,0.50
2023-04-15T14:08:04.993Z,2.85
2023-04-15T14:10:52.863Z,0.70
2023-04-15T14:13:40.614Z,1.45
2023-04-15T14:16:28.602Z,3.92
2023-04-15T14:19:16.735Z,3.70
2023-04-15T14:22:04.526Z,1.23
2023-04-15T14:24:53.928Z,1.00
2023-04-15T14:27:41.637Z,3.40
2023-04-15T14:30:29.528Z,2.35
2023-04-15T14:33:17.568Z,0.70
2023-04-15T14:36:07.138Z,2.00
2023-04-15T14:38:57.365Z,3.25
2023-04-15T14:41:45.183Z,2.90
2023-04-15T14:44:33.011Z,0.93
2023-04-15T14:47:29.717Z,2.30
2023-04-15T14:50:17.686Z,6.53
2023-04-15T14:53:05.578Z,3.70
2023-04-15T14:55:53.319Z,0.60
2023-04-15T14:58:41.052Z,1.30
2023-04-15T15:01:28.982Z,3.60
2023-04-15T15:04:16.972Z,7.78
2023-04-15T15:07:05.984Z,1.73
2023-04-15T15:09:55.259Z,0.30
2023-04-15T15:12:42.848Z,4.13
2023-04-15T15:15:30.665Z,1.35
2023-04-15T15:18:21.616Z,1.35
2023-04-15T15:21:09.222Z,4.03
2023-04-15T15:23:56.957Z,0.70
2023-04-15T15:26:47.459Z,7.00
2023-04-15T15:29:35.175Z,3.03
2023-04-15T15:32:22.905Z,2.47
2023-04-15T15:35:11.373Z,1.15
2023-04-15T15:38:02.510Z,1.13
2023-04-15T15:40:50.278Z,0.82
2023-04-15T15:43:37.970Z,7.72
2023-04-15T15:46:28.283Z,1.25
2023-04-15T15:49:16.115Z,1.67
2023-04-15T15:52:03.998Z,1.52
2023-04-15T15:54:51.807Z,2.00
2023-04-15T15:57:39.982Z,2.80
2023-04-15T16:00:27.949Z,5.82
2023-04-15T16:03:16.110Z,2.53
2023-04-15T16:06:07.636Z,2.92
2023-04-15T16:08:57.572Z,0.80
2023-04-15T16:11:47.906Z,4.32
2023-04-15T16:14:35.816Z,0.90
2023-04-15T16:17:24.584Z,0.82
2023-04-15T16:20:12.404Z,5.85
2023-04-15T16:23:01.391Z,0.55
2023-04-15T16:25:52.477Z,0.20
2023-04-15T16:28:40.190Z,1.17
2023-04-15T16:31:28.635Z,1.52
2023-04-15T16:34:19.554Z,2.67
2023-04-15T16:37:11.028Z,0.63
2023-04-15T16:40:01.112Z,1.65
2023-04-15T16:42:50.462Z,1.80
2023-04-15T16:45:38.688Z,2.13
2023-04-15T16:48:26.946Z,3.13
2023-04-15T16:51:20.026Z,3.15
2023-04-15T16:54:08.564Z,0.40
2023-04-15T16:56:58.868Z,0.52
2023-04-15T16:59:46.695Z,4.95
2023-04-15T17:02:37.403Z,1.73
2023-04-15T17:05:30.104Z,1.02
2023-04-15T17:08:18.010Z,3.03
2023-04-15T17:11:05.836Z,4.10
2023-04-15T17:13:53.741Z,2.42
2023-04-15T17:16:42.058Z,6.93
2023-04-15T17:19:30.115Z,2.45
2023-04-15T17:22:18.032Z,4.25
2023-04-15T17:25:09.204Z,3.30
2023-04-15T17:27:57.006Z,4.63
2023-04-15T17:30:48.833Z,5.28
2023-04-15T17:36:54.403Z,6.13
2023-04-15T17:39:42.112Z,1.30
2023-04-15T17:42:29.850Z,2.58
2023-04-15T17:45:17.757Z,2.15
2023-04-15T17:48:07.999Z,0.77
2023-04-15T17:50:55.839Z,2.85
2023-04-15T17:53:48.853Z,0.95
2023-04-15T17:56:39.073Z,4.07
2023-04-15T17:59:26.747Z,3.05
2023-04-15T18:02:15.696Z,1.45
2023-04-15T18:05:03.775Z,1.50
2023-04-15T18:07:53.881Z,1.02
2023-04-15T18:10:44.678Z,5.72
2023-04-15T18:13:33.704Z,5.55
2023-04-15T18:16:21.586Z,6.97
2023-04-15T18:19:12.636Z,1.92
2023-04-15T18:22:00.756Z,2.35
2023-04-15T18:24:50.182Z,1.70
2023-04-15T18:27:41.043Z,2.08
2023-04-15T18:30:28.685Z,6.75
2023-04-15T18:33:16.477Z,3.58
2023-04-15T18:36:04.347Z,2.35
2023-04-15T18:38:52.035Z,1.05
2023-04-15T18:41:39.738Z,0.63
2023-04-15T18:44:28.616Z,0.82
2023-04-15T18:47:16.866Z,4.22
2023-04-15T18:50:04.877Z,9.00
2023-04-15T18:52:53.632Z,3.80
2023-04-15T18:55:41.476Z,5.78
2023-04-15T18:58:29.487Z,5.97
2023-04-15T19:01:37.330Z,0.30
2023-04-15T19:04:25.316Z,2.13
2023-04-15T19:07:30.370Z,1.67
2023-04-15T19:10:18.452Z,0.38
2023-04-15T19:13:06.728Z,1.92
2023-04-15T19:15:54.545Z,6.82
2023-04-15T19:18:42.359Z,0.80
2023-04-15T19:21:31.002Z,3.28
2023-04-15T19:24:22.197Z,1.70
2023-04-15T19:27:09.878Z,2.83
2023-04-15T19:29:57.607Z,10.63
2023-04-15T19:32:45.525Z,5.50
2023-04-15T19:35:33.650Z,2.10
2023-04-15T19:38:21.528Z,5.68
2023-04-15T19:41:10.661Z,3.85
2023-04-15T19:43:58.566Z,8.10
2023-04-15T19:46:50.162Z,9.05
2023-04-15T19:49:38.270Z,8.25
2023-04-15T19:52:26.449Z,6.38
2023-04-15T19:55:14.179Z,3.80
2023-04-15T19:58:01.971Z,16.92
2023-04-15T20:00:53.368Z,8.00
2023-04-15T20:03:41.432Z,6.72
2023-04-15T20:06:29.399Z,10.70
2023-04-15T20:09:17.414Z,3.20
2023-04-15T20:12:49.665Z,8.45
2023-04-15T20:15:13.174Z,6.78
2023-04-15T20:18:01.420Z,21.42
2023-04-15T20:20:49.145Z,20.40
2023-04-15T20:23:38.425Z,17.67
2023-04-15T20:26:29.007Z,24.30
2023-04-15T20:33:22.562Z,15.23
2023-04-15T20:36:10.473Z,14.00
2023-04-15T20:38:58.110Z,16.92
2023-04-15T20:41:45.930Z,18.67
2023-04-15T20:44:28.942Z,10.98
2023-04-15T20:47:16.863Z,16.17
2023-04-15T20:50:05.046Z,8.60
2023-04-15T20:52:52.761Z,28.00
2023-04-15T20:55:40.783Z,15.75
2023-04-15T20:58:28.535Z,17.60
2023-04-15T21:01:16.363Z,17.35
2023-04-15T21:04:04.183Z,15.55
2023-04-15T21:06:54.825Z,16.63
2023-04-15T21:09:43.988Z,13.98
2023-04-15T21:12:33.925Z,23.92
2023-04-15T21:15:23.371Z,26.45
2023-04-15T21:21:33.613Z,20.40
2023-04-15T21:24:24.376Z,14.02
2023-04-15T21:27:14.870Z,15.00
2023-04-15T21:30:24.000Z,13.70
